Pagina principale
METAR-TAF:

METAR-TAF

Aeroporti :

Aeroporto di Nal'čik

Nal'čik, Russia

latitudine: 43-30-46N, longitudine: 043-38-12E, altezza: 445 m

Osservazione

Il bollettino è stato emesso 1 ora e 5 minuti fa, alle 23:00 UTC
Vento 4 kt da sud/sud-ovest
Temperature 15°C
Umidità 77%
Pressione 1017 hPa
Visibilità 10 km o più

METAR: URMN 302300Z 21002MPS 9999 NSC 15/11 Q1017 R24/////// NOSIG RMK QFE726

Ora: 04:05 (00:05 UTC)

Previsione

Il bollettino è stato emesso 1 ora e 5 minuti fa, alle 23:00 UTC
Previsione valida dal 31 alle 00 UTC al 31 alle 09 UTC
Vento 6 kt da ovest/sud-ovest
Visibilità 10 km o più
Nubi sparse ad un'altezza di 2000 ft, Cumulonembo.
Temporaneamente
dal 31 alle 00 UTC al 31 alle 06 UTC
Visibilità: 6000 m
Nubi sparse ad un'altezza di 1600 ft
Nuvoloso ad un'altezza di 2000 ft, Cumulonembo.
rovesci di pioggia

TAF: URMN 302300Z 3100/3109 24003MPS 9999 SCT020CB TEMPO 3100/3106 6000 -SHRA SCT016 BKN020CB

Osservazioni e previsioni meteorologiche di più di 4000 aeroporti (messaggi METAR e TAF).

Le stazioni disponibili sono rappresentate dai dischi gialli e rossi sulla carta.

Puntare il mouse per vedere il nome della stazione.

Clicca sopra per visualizzare le osservazioni e previsioni meteorologiche.

Per cambiare la mappa : fare clic sui pulsanti verdi con una croce nera per ingrandire, il pulsante verde con un trattino per diminuire, o sulla freccia verde per le mappe adiacenti.


METAR-TAF: